• Join FlightAware (Why Join?)
  • Login
  • US Flag 
11:26AM EDT


 

Airport Tracker/Info


-or-


 

Live Flight TrackerFlight Track Log ✈ AAY876 ✈ 19-Apr-2014 ✈ KPIE - KRFD

Flight Track Log - Related Links

Times and Time Zones

All times are in EDT time to prevent confusion due to time zone crossing. See the AAY876 flight status page for this flight to view local times or setup timezone preferences in your user account.

Time Position Orientation Groundspeed Altitude Reporting Facility
EDT Latitude Longitude Course Direction KTS MPH feet Rate Location/Type
03:49PM 27.9333 -82.7000 24° Northeast 157 181 900  Level Tampa TRACON
03:50PM 27.9667 -82.6833 North 210 242 2,100 1,500 Climbing Tampa TRACON
03:51PM 28.0333 -82.6667 12° North 275 316 3,700 1,740 Climbing Tampa TRACON
03:52PM 28.1000 -82.6833 348° North 268 308 5,500 1,980 Climbing Tampa TRACON
03:53PM 28.2144 -82.6922 356° North 283 326 8,700 2,220 Climbing Jacksonville Center
03:54PM 28.2958 -82.7017 354° North 289 333 11,200 1,920 Climbing Jacksonville Center
03:55PM 28.3794 -82.7133 353° North 294 338 12,600 1,140 Climbing Jacksonville Center
03:56PM 28.4753 -82.7392 347° North 318 366 13,500 1,320 Climbing Jacksonville Center
03:57PM 28.5819 -82.7697 346° North 358 412 15,300 1,920 Climbing Jacksonville Center
03:58PM 28.6903 -82.7978 347° North 383 441 17,400 1,860 Climbing Jacksonville Center
03:59PM 28.8011 -82.8261 347° North 397 457 19,100 1,740 Climbing Jacksonville Center
04:00PM 28.9117 -82.8594 345° North 402 463 20,900 1,560 Climbing Jacksonville Center
04:01PM 29.0264 -82.8903 347° North 407 468 22,300 1,560 Climbing Jacksonville Center
04:02PM 29.1392 -82.9211 347° North 414 476 24,100 1,680 Climbing Jacksonville Center
04:03PM 29.2497 -82.9519 346° North 414 476 25,700 1,500 Climbing Jacksonville Center
04:04PM 29.3603 -82.9808 347° North 414 476 27,200 1,500 Climbing Jacksonville Center
04:05PM 29.4689 -83.0119 346° North 408 470 28,700 1,200 Climbing Jacksonville Center
04:06PM 29.5817 -83.0456 345° North 414 476 29,600 600 Climbing Jacksonville Center
04:07PM 29.6839 -83.0911 339° North 402 463 29,900 420 Climbing Jacksonville Center
04:08PM 29.7861 -83.1367 339° North 395 455 30,500 720 Climbing Jacksonville Center
04:09PM 29.8883 -83.1847 338° Northwest 390 449 31,400 660 Climbing Jacksonville Center
04:10PM 29.9842 -83.2283 338° Northwest 390 449 31,900 240 Climbing Jacksonville Center
04:11PM 30.0969 -83.2792 339° North 390 449 31,900  Level Jacksonville Center
04:12PM 30.1969 -83.3253 338° Northwest 390 449 31,900  Level Jacksonville Center
04:13PM 30.2969 -83.3714 338° Northwest 390 449 31,900  Level Jacksonville Center
04:14PM 30.3950 -83.4175 338° Northwest 390 449 31,900  Level Jacksonville Center
04:15PM 30.4950 -83.4664 337° Northwest 385 443 31,900  Level Jacksonville Center
04:16PM 30.5950 -83.5128 338° Northwest 385 443 31,900  Level Jacksonville Center
04:17PM 30.6969 -83.5642 337° Northwest 390 449 31,900  Level Jacksonville Center
04:18PM 30.7989 -83.6108 339° North 390 449 32,000  Climbing Jacksonville Center
04:19PM 30.9011 -83.6600 338° Northwest 390 449 32,000  Level Jacksonville Center
04:20PM 31.0050 -83.7094 338° Northwest 390 449 32,000  Level Jacksonville Center
04:21PM 31.1092 -83.7589 338° Northwest 390 449 32,000  Level Jacksonville Center
04:22PM 31.2111 -83.8083 337° Northwest 390 449 32,000  Level Jacksonville Center
04:24PM 31.4378 -83.9172 338° Northwest 391 450 32,000  Level Atlanta Center
04:25PM 31.5378 -83.9633 339° North 391 450 32,000  Level Atlanta Center
04:26PM 31.6547 -83.9925 348° North 386 444 32,000  Level Atlanta Center
04:27PM 31.7611 -84.0119 351° North 381 438 32,000  Level Atlanta Center
04:28PM 31.8656 -84.0339 350° North 381 438 32,000  Level Atlanta Center
04:29PM 31.9719 -84.0583 349° North 381 438 32,000  Level Atlanta Center
04:30PM 32.0783 -84.0806 350° North 381 438 32,000  Level Atlanta Center
04:31PM 32.1828 -84.1050 349° North 381 438 32,000  Level Atlanta Center
04:32PM 32.2914 -84.1297 349° North 381 438 32,000  Level Atlanta Center
04:33PM 32.3956 -84.1519 350° North 386 444 32,000  Level Atlanta Center
04:34PM 32.5022 -84.1767 349° North 386 444 32,000  Level Atlanta Center
04:35PM 32.6064 -84.2017 349° North 386 444 32,000  Level Atlanta Center
04:36PM 32.7150 -84.2239 350° North 392 451 32,000  Level Atlanta Center
04:37PM 32.8192 -84.2514 347° North 387 445 32,000  Level Atlanta Center
04:38PM 32.9278 -84.2739 350° North 387 445 32,000  Level Atlanta Center
04:39PM 33.0322 -84.2989 349° North 387 445 32,000  Level Atlanta Center
04:40PM 33.1364 -84.3217 350° North 385 443 32,000  Level Atlanta Center
04:41PM 33.2450 -84.3469 349° North 385 443 32,000  Level Atlanta Center
04:42PM 33.3492 -84.3694 350° North 385 443 32,000  Level Atlanta Center
04:43PM 33.4556 -84.3947 349° North 385 443 32,000  Level Atlanta Center
04:44PM 33.5494 -84.4178 348° North 390 449 32,000  Level Atlanta Center
04:45PM 33.6706 -84.4456 349° North 390 449 32,000  Level Atlanta Center
04:46PM 33.7683 -84.4711 348° North 388 447 32,000  Level Atlanta Center
04:47PM 33.8747 -84.4967 349° North 388 447 32,000  Level Atlanta Center
04:48PM 33.9833 -84.5222 349° North 382 440 32,000  Level Atlanta Center
04:49PM 34.0769 -84.5453 348° North 382 440 32,000  Level Atlanta Center
04:50PM 34.1981 -84.5739 349° North 393 452 32,000  Level Atlanta Center
04:51PM 34.3064 -84.5997 349° North 393 452 32,000  Level Atlanta Center
04:52PM 34.4003 -84.6228 349° North 393 452 32,000  Level Atlanta Center
04:53PM 34.5108 -84.6489 349° North 393 452 32,000  Level Atlanta Center
04:54PM 34.6192 -84.6747 349° North 393 452 32,000  Level Atlanta Center
04:55PM 34.7275 -84.7061 347° North 393 452 32,000  Level Atlanta Center
04:56PM 34.8358 -84.7322 349° North 393 452 32,000  Level Atlanta Center
04:57PM 34.9464 -84.7608 348° North 393 452 32,000  Level Atlanta Center
04:58PM 35.0589 -84.7872 349° North 393 452 32,000  Level Atlanta Center
04:59PM 35.1714 -84.8164 348° North 398 458 32,000  Level Atlanta Center
05:00PM 35.2817 -84.8428 349° North 398 458 32,000  Level Atlanta Center
05:01PM 35.3942 -84.8719 348° North 403 464 32,000  Level Atlanta Center
05:02PM 35.5067 -84.9011 348° North 409 471 32,000  Level Atlanta Center
05:03PM 35.6192 -84.9278 349° North 409 471 32,000  Level Atlanta Center
05:04PM 35.7294 -84.9572 348° North 409 471 32,000  Level Atlanta Center
05:05PM 35.8564 -84.9867 349° North 414 476 32,000  Level Atlanta Center
05:08PM 36.1125 -85.0539 348° North 424 488 32,000  Level Indianapolis Center
05:09PM 36.2308 -85.0842 348° North 430 495 32,000  Level Indianapolis Center
05:10PM 36.3481 -85.1142 348° North 430 495 32,000  Level Indianapolis Center
05:11PM 36.4872 -85.1506 348° North 428 493 32,000  Level Indianapolis Center
05:12PM 36.6036 -85.1811 348° North 428 493 32,000  Level Indianapolis Center
05:13PM 36.7192 -85.2117 348° North 427 491 32,000  Level Indianapolis Center
05:14PM 36.8361 -85.2417 348° North 427 491 32,000  Level Indianapolis Center
05:15PM 36.9542 -85.2733 348° North 429 494 32,000  Level Indianapolis Center
05:16PM 37.0772 -85.3039 349° North 434 499 32,000  Level Indianapolis Center
05:17PM 37.1956 -85.3364 348° North 434 499 32,000  Level Indianapolis Center
05:18PM 37.3147 -85.3681 348° North 434 499 32,000  Level Indianapolis Center
05:19PM 37.4336 -85.3994 348° North 434 499 32,000  Level Indianapolis Center
05:20PM 37.5650 -85.4581 341° North 433 498 32,000  Level Indianapolis Center
05:21PM 37.6753 -85.5181 337° Northwest 432 497 32,000  Level Indianapolis Center
05:22PM 37.7933 -85.5783 338° Northwest 432 497 32,000  Level Indianapolis Center
05:23PM 37.9050 -85.6353 338° Northwest 432 497 32,000  Level Indianapolis Center
05:24PM 38.0164 -85.6931 338° Northwest 432 497 32,000  Level Indianapolis Center
05:25PM 38.1278 -85.7522 337° Northwest 432 497 32,000  Level Indianapolis Center
05:26PM 38.2400 -85.8128 337° Northwest 434 499 32,000  Level Indianapolis Center
05:27PM 38.3533 -85.8706 338° Northwest 434 499 32,000  Level Indianapolis Center
05:28PM 38.4669 -85.9314 337° Northwest 438 504 32,000  Level Indianapolis Center
05:29PM 38.5706 -86.0117 329° Northwest 437 503 32,000  Level Indianapolis Center
05:30PM 38.6953 -86.1106 328° Northwest 438 504 32,000  Level Indianapolis Center
05:31PM 38.7978 -86.1936 328° Northwest 438 504 32,000  Level Indianapolis Center
05:32PM 38.9033 -86.2783 328° Northwest 438 504 32,000  Level Indianapolis Center
05:33PM 39.0078 -86.3625 328° Northwest 438 504 32,000  Level Indianapolis Center
05:34PM 39.1111 -86.4461 328° Northwest 438 504 32,000  Level Indianapolis Center
05:35PM 39.2150 -86.5292 328° Northwest 438 504 32,000  Level Indianapolis Center
05:37PM 39.3186 -86.6147 327° Northwest 438 504 32,000  Level Indianapolis Center
05:38PM 39.4222 -86.6997 328° Northwest 438 504 32,000  Level Indianapolis Center
05:39PM 39.5261 -86.7853 328° Northwest 438 504 32,000  Level Indianapolis Center
05:40PM 39.6297 -86.8708 328° Northwest 438 504 32,000  Level Indianapolis Center
05:41PM 39.7531 -86.9736 327° Northwest 438 504 32,000  Level Indianapolis Center
05:42PM 39.8556 -87.0575 328° Northwest 438 504 32,000  Level Indianapolis Center
05:43PM 39.9583 -87.1444 327° Northwest 437 503 32,000  Level Indianapolis Center
05:44PM 40.0600 -87.2300 327° Northwest 437 503 32,000  Level Indianapolis Center
05:45PM 40.1631 -87.3167 327° Northwest 437 503 32,000  Level Indianapolis Center
05:45PM 40.2244 -87.3686 327° Northwest 438 504 32,000  Level Chicago Center
05:46PM 40.3406 -87.4681 327° Northwest 440 506 32,000  Level Chicago Center
05:47PM 40.4292 -87.5778 317° Northwest 439 505 32,000  Level Chicago Center
05:48PM 40.5147 -87.6911 315° West 438 504 32,000  Level Chicago Center
05:50PM 40.6000 -87.8056 314° West 438 504 32,000  Level Chicago Center
05:51PM 40.7028 -87.9394 315° West 436 502 32,000  Level Chicago Center
05:52PM 40.7875 -88.0547 314° West 436 502 32,000  Level Chicago Center
05:53PM 40.8736 -88.1669 315° West 435 501 32,000  Level Chicago Center
05:54PM 40.9586 -88.2819 314° West 435 501 32,000 -540 Level Chicago Center
05:55PM 41.0419 -88.3936 315° West 427 491 31,000 -1,620 Descending Chicago Center
05:56PM 41.1217 -88.5008 315° West 413 475 28,700 -2,220 Descending Chicago Center
05:57PM 41.2028 -88.6122 314° West 415 478 26,500 -2,220 Descending Chicago Center
05:58PM 41.2883 -88.7275 315° West 429 494 24,200 -2,280 Descending Chicago Center
05:59PM 41.3722 -88.8436 314° West 432 497 21,900 -2,520 Descending Chicago Center
06:00PM 41.4706 -88.9767 315° West 425 489 19,100 -2,400 Descending Chicago Center
06:01PM 41.5472 -89.0836 314° West 407 468 17,000 -2,160 Descending Chicago Center
06:02PM 41.6206 -89.1861 314° West 389 448 14,700 -1,980 Descending Chicago Center
06:03PM 41.6953 -89.2797 317° Northwest 372 428 13,000 -1,440 Descending Chicago Center
06:04PM 41.7872 -89.2889 356° North 348 400 11,800 -1,500 Descending Chicago Center
06:05PM 41.8731 -89.2606 14° North 318 366 10,000 -1,980 Descending Chicago Center
06:06PM 41.9550 -89.2361 13° North 306 352 7,800 -2,220 Descending Chicago Center
06:07PM 42.0517 -89.2097 11° North 298 343 5,500 -1,920 Descending Chicago Center
06:08PM 42.1114 -89.2083 North 270 311 3,900 -1,020 Descending Chicago Center
06:09PM 42.2033 -89.3122 320° Northwest 303 349 3,500 -420 Descending Chicago Center
06:11PM 42.1954 -89.0972 93° East  Level Estimated